Huvudsida
METAR-TAF:

METAR-TAF

Flygplatser :

Šiauliai internationella flygplats

Šiauliai, Litauen

latitud: 55-53-38N, longitud: 023-23-42E, höjd: 135 m

Aktuellt väderrapport

Denna rapport gjordes för 24 minuter sedan, klockan 12:50 UTC
Vind 5 kt från syd/sydväst, varierande mellan syd/sydost och väst/sydväst
Temperatur 24°C
Fuktighet 36%
Tryck 1014 hPa
Sikt 10 km eller mer
Inga moln under 1 500 m eller inga cumulonimbus

METAR: EYSA 171250Z 21005KT 160V250 CAVOK 24/08 Q1014 BLU NOSIG

Tid: 16:14 (13:14 UTC)

Väderprognos

Denna rapport gjordes för 2 timmar och 8 minuter sedan, klockan 11:06 UTC
Prognos gäller från 17 kl. 12 UTC till 17 kl. 21 UTC
Vind 10 kt från syd
Sikt 10 km eller mer
Inga moln under 1 500 m eller inga cumulonimbus
Blir
från 17 kl. 17 UTC till 17 kl. 18 UTC
Vind 5 kt varierande vindriktning

TAF: EYSA 171106Z 1712/1721 17010KT CAVOK BECMG 1717/1718 VRB05KT

Aktuella väderrapporter och prognoser från 4000 flygplatser (METAR- och TAF-rapporter).

De tillgängliga stationerna syns som gula och röda prickar på kartan.

För musen över prickarna för att se namnen på stationerna.

Klicka sedan för att få väderrapporter och prognoser.

För att ändra kartan: Klicka på de gröna knapparna med ett svart kors på för att zooma in; den gröna knappen med ett streck på för att zooma ut; eller på de gröna pilarna för angränsande kartor.


METAR-TAF: